CSCL Dalian — VRBH4 — position and weather

sailwx.info

Track history (hours):
 
Tides and Currents Weather Stations Pressure Air Temp Water Temp Dewpoint Dewpoint Depression Visibility Wind Speed Wind Dir Waves Ship Positions

CSCL Dalian

Last reported at 2014-Jul-26 05:07 UTC. Time now 2014-Jul-30 23:19 UTC.
Position N 27°24' W 115°25'.

Length 259.8 m; ; draft 11 m.

Type: Cargo ship. MMSI: 477014600.

Date/timePositionNaut miles runAvg speedWind from/ knotsBaromVisibWave heightAir tempDewpointWater temp
2014-Jul-26 05:07N 27°24' W 115°25'6416.4
2014-Jul-26 01:15N 28°15' W 116°07'19216.0
2014-Jul-25 13:14N 31°15' W 117°24'4416.1
2014-Jul-25 10:30N 31°57' W 117°42'2216.1
2014-Jul-25 09:08N 32°18' W 117°50'915.9
2014-Jul-25 08:33N 32°26' W 117°54'1616.0
2014-Jul-25 07:33N 32°41' W 118°00'1616.3
2014-Jul-25 06:33N 32°57' W 118°03'1413.6
2014-Jul-25 05:33N 33°11' W 118°05'1212.0
2014-Jul-25 04:33N 33°22' W 118°08'1212.0
2014-Jul-25 03:33N 33°34' W 118°13'1010.3
2014-Jul-25 02:33N 33°44' W 118°16'1 0.5
2014-Jul-25 01:33N 33°44' W 118°15'0 0.0
2014-Jul-25 00:33N 33°44' W 118°15'0 0.0
2014-Jul-24 23:33N 33°44' W 118°15'0 0.0
2014-Jul-24 22:33N 33°44' W 118°15'0 0.0
2014-Jul-24 21:33N 33°44' W 118°15'0 0.0
2014-Jul-24 20:33N 33°44' W 118°15'0 0.0
2014-Jul-24 19:33N 33°44' W 118°15'0 0.0
2014-Jul-24 18:30N 33°44' W 118°15'0 0.0
2014-Jul-24 17:33N 33°44' W 118°15'0 0.0
2014-Jul-24 16:31N 33°44' W 118°15'0 0.0
2014-Jul-24 15:29N 33°44' W 118°15'0 0.0
2014-Jul-24 14:20N 33°44' W 118°15'0 0.0
2014-Jul-24 13:32N 33°44' W 118°15'0 0.1
2014-Jul-24 12:33N 33°44' W 118°15'5 5.0
2014-Jul-24 11:33N 33°39' W 118°14'6 5.8
2014-Jul-24 10:33N 33°36' W 118°20'9 9.0
2014-Jul-24 09:33N 33°40' W 118°30'10 9.8
2014-Jul-24 08:33N 33°45' W 118°40'1010.0
2014-Jul-24 07:33N 33°50' W 118°50'1110.6
2014-Jul-24 06:33N 33°55' W 119°01'1312.7
2014-Jul-24 05:33N 34°02' W 119°14'1313.0
2014-Jul-24 04:33N 34°06' W 119°29'1312.6
2014-Jul-24 03:33N 34°09' W 119°44'1212.5
2014-Jul-24 02:33N 34°12' W 119°59'1312.5
2014-Jul-24 01:33N 34°15' W 120°13'7612.7
2014-Jul-23 19:33N 34°59' W 121°29'1913.2
2014-Jul-23 18:08N 35°15' W 121°42'1013.4
2014-Jul-23 17:23N 35°23' W 121°49'2613.6
2014-Jul-23 15:28N 35°45' W 122°07'1213.2
2014-Jul-23 14:33N 35°54' W 122°16'1413.5
2014-Jul-23 13:33N 36°06' W 122°24'1413.6
2014-Jul-23 12:33N 36°18' W 122°31'1313.2
2014-Jul-23 11:33N 36°30' W 122°38'1313.2
2014-Jul-23 10:33N 36°42' W 122°45'1313.3
2014-Jul-23 09:33N 36°55' W 122°52'1313.5
2014-Jul-23 08:33N 37°06' W 122°60'1413.7
2014-Jul-23 07:33N 37°19' W 123°06'1313.4
2014-Jul-23 06:33N 37°33' W 123°06'1514.6
2014-Jul-23 05:33N 37°41' W 122°51'1414.0
2014-Jul-23 04:33N 37°47' W 122°35'1211.7
2014-Jul-23 03:33N 37°49' W 122°20'1 0.7
2014-Jul-23 02:32N 37°49' W 122°19'0 0.0
2014-Jul-23 01:32N 37°49' W 122°19'0 0.0
2014-Jul-23 00:32N 37°49' W 122°19'0 0.0
2014-Jul-22 23:32N 37°49' W 122°19'0 0.0
2014-Jul-22 22:32N 37°49' W 122°19'0 0.0
2014-Jul-22 21:33N 37°49' W 122°19'0 0.0
2014-Jul-22 20:33N 37°49' W 122°19'0 0.0
2014-Jul-22 19:33N 37°49' W 122°19'0 0.0
2014-Jul-22 18:33N 37°49' W 122°19'0 0.0
2014-Jul-22 17:33N 37°49' W 122°19'0 0.0
2014-Jul-22 16:33N 37°49' W 122°19'0 0.0
2014-Jul-22 15:33N 37°49' W 122°19'0 0.0
2014-Jul-22 14:33N 37°49' W 122°19'0 0.0
2014-Jul-22 13:33N 37°49' W 122°19'0 0.0
2014-Jul-22 12:33N 37°49' W 122°19'0 0.0
2014-Jul-22 11:33N 37°49' W 122°19'0 0.0
2014-Jul-22 10:33N 37°49' W 122°19'0 0.0
2014-Jul-22 09:33N 37°49' W 122°19'0 0.0
2014-Jul-22 08:33N 37°49' W 122°19'0 0.0
2014-Jul-22 07:33N 37°49' W 122°19'0 0.0
2014-Jul-22 06:33N 37°49' W 122°19'0 0.0
2014-Jul-22 05:33N 37°49' W 122°19'0 0.3
2014-Jul-22 04:34N 37°49' W 122°20'9 8.8
2014-Jul-22 03:33N 37°48' W 122°31'1111.4
2014-Jul-22 02:33N 37°45' W 122°45'6 6.4
2014-Jul-22 01:33N 37°48' W 122°51'1010.3
2014-Jul-22 00:33N 37°54' W 123°03'10 9.9
2014-Jul-21 23:33N 37°60' W 123°13'1010.2
2014-Jul-21 22:33N 38°07' W 123°22'1010.1
2014-Jul-21 21:33N 38°10' W 123°34'1110.6
2014-Jul-21 20:33N 38°13' W 123°47'313.0
2014-Jul-21 20:18N 38°14' W 123°51'1013.3
2014-Jul-21 19:33N 38°17' W 124°03'1313.2
2014-Jul-21 18:33N 38°29' W 124°11'4013.4
2014-Jul-21 15:33N 39°04' W 124°36'1313.3
2014-Jul-21 14:33N 39°15' W 124°44'39413.5
2014-Jul-20 09:19N 45°49' W 124°19'1013.5
2014-Jul-20 08:33N 45°59' W 124°16'1313.2
2014-Jul-20 07:33N 46°12' W 124°12'1414.0
2014-Jul-20 06:33N 46°12' W 123°51'1312.9
2014-Jul-20 05:33N 46°15' W 123°33'1110.5
2014-Jul-20 04:33N 46°09' W 123°22'1312.7
2014-Jul-20 03:33N 46°09' W 123°03'1111.0
2014-Jul-20 02:33N 46°01' W 122°52'1211.6
2014-Jul-20 01:33N 45°50' W 122°47'1111.6
2014-Jul-20 00:33N 45°39' W 122°45'1 0.2
2014-Jul-19 21:11N 45°38' W 122°45'0 0.0
2014-Jul-19 20:29N 45°38' W 122°45'0 0.0
2014-Jul-19 19:26N 45°38' W 122°45'0 0.0
2014-Jul-19 18:32N 45°38' W 122°45'0 0.0
2014-Jul-19 17:29N 45°38' W 122°45'0 0.0
2014-Jul-19 16:05N 45°38' W 122°45'0 0.0
2014-Jul-19 15:23N 45°38' W 122°45'0 0.0
2014-Jul-19 14:23N 45°38' W 122°45'0 0.0
2014-Jul-19 13:32N 45°38' W 122°45'1 1.3
2014-Jul-19 12:33N 45°39' W 122°46'1212.2
2014-Jul-19 11:33N 45°52' W 122°47'1312.6
2014-Jul-19 10:33N 46°04' W 122°53'1212.5
2014-Jul-19 09:34N 46°11' W 123°07'1212.1
2014-Jul-19 08:34N 46°10' W 123°25'1010.4
2014-Jul-19 07:33N 46°16' W 123°38'1111.1
2014-Jul-19 06:33N 46°12' W 123°52'1111.1
2014-Jul-19 05:33N 46°14' W 124°08'10 9.7
2014-Jul-19 04:33N 46°19' W 124°20'1211.5
2014-Jul-19 03:32N 46°28' W 124°29'1414.2
2014-Jul-19 02:34N 46°40' W 124°40'1414.4
2014-Jul-19 01:33N 46°52' W 124°51'1414.3
2014-Jul-19 00:34N 47°05' W 125°02'1413.7
2014-Jul-18 23:33N 47°16' W 125°12'4113.2
2014-Jul-18 20:29N 47°57' W 125°16'1413.8
2014-Jul-18 19:29N 48°11' W 125°17'1213.0
2014-Jul-18 18:33N 48°22' W 125°11'1313.0
2014-Jul-18 17:33N 48°31' W 124°56'1616.1
2014-Jul-18 16:33N 48°28' W 124°32'1615.7
2014-Jul-18 15:33N 48°21' W 124°11'1615.7
2014-Jul-18 14:33N 48°17' W 123°48'1413.8
2014-Jul-18 13:33N 48°19' W 123°27'1212.1
2014-Jul-18 12:34N 48°25' W 123°12'1818.5
2014-Jul-18 11:33N 48°44' W 123°10'1313.1
2014-Jul-18 10:34N 48°57' W 123°14'1111.3
2014-Jul-18 09:33N 49°08' W 123°14'1111.4
2014-Jul-18 08:33N 49°10' W 122°57'2 1.9
2014-Jul-18 07:32N 49°11' W 122°55'0 0.0
2014-Jul-18 06:32N 49°11' W 122°55'0 0.0
2014-Jul-18 05:32N 49°11' W 122°55'0 0.0
2014-Jul-18 04:32N 49°11' W 122°55'0 0.0
2014-Jul-18 03:32N 49°11' W 122°55'0 0.0
2014-Jul-18 02:32N 49°11' W 122°55'0 0.0
2014-Jul-18 01:32N 49°11' W 122°55'0 0.0
2014-Jul-18 00:29N 49°11' W 122°55'0 0.0
2014-Jul-17 23:29N 49°11' W 122°55'0 0.0
2014-Jul-17 22:32N 49°11' W 122°55'0 0.0
2014-Jul-17 21:32N 49°11' W 122°55'0 0.0
2014-Jul-17 20:29N 49°11' W 122°55'0 0.0
2014-Jul-17 19:29N 49°11' W 122°55'0 0.0
2014-Jul-17 18:32N 49°11' W 122°55'0 0.0
2014-Jul-17 17:26N 49°11' W 122°55'0 0.0
2014-Jul-17 16:29N 49°11' W 122°55'0 0.0
2014-Jul-17 15:32N 49°11' W 122°55'0 0.0
2014-Jul-17 14:32N 49°11' W 122°55'1 0.7
2014-Jul-17 13:34N 49°11' W 122°55'8 7.6
2014-Jul-17 12:34N 49°07' W 123°06'1110.6
2014-Jul-17 11:34N 49°03' W 123°21'1313.2
2014-Jul-17 10:33N 48°54' W 123°05'1313.3
2014-Jul-17 09:33N 48°42' W 123°13'1717.0
2014-Jul-17 08:33N 48°25' W 123°10'1312.6
2014-Jul-17 07:33N 48°17' W 123°25'9 9.2
2014-Jul-17 06:33N 48°10' W 123°17'1919.4
2014-Jul-17 05:33N 48°11' W 122°48'1919.5
2014-Jul-17 04:33N 47°56' W 122°30'1919.0
2014-Jul-17 03:33N 47°37' W 122°27'1615.6
2014-Jul-17 02:33N 47°22' W 122°23'6 6.3
2014-Jul-17 01:33N 47°15' W 122°23'0 0.0
2014-Jul-16 19:20N 47°15' W 122°23'0 0.0
2014-Jul-16 18:32N 47°15' W 122°23'1 0.1
2014-Jul-16 12:25N 47°16' W 122°23'4 4.5
2014-Jul-16 11:33N 47°18' W 122°27'1615.5
2014-Jul-16 10:34N 47°34' W 122°27'1919.4
2014-Jul-16 09:33N 47°53' W 122°29'1717.1
2014-Jul-16 08:33N 48°08' W 122°42'1817.6
2014-Jul-16 07:33N 48°12' W 123°08'1312.9
2014-Jul-16 06:33N 48°11' W 123°27'10 9.6
2014-Jul-16 05:34N 48°14' W 123°41'  
Track history (hours):
 
Tides and Currents Weather Stations Pressure Air Temp Water Temp Dewpoint Dewpoint Depression Visibility Wind Speed Wind Dir Waves Ship Positions

CSCL Dalian

Last reported at 2014-Jul-26 05:07 UTC. Time now 2014-Jul-30 23:19 UTC.
Position N 27°24' W 115°25'.

Length 259.8 m; ; draft 11 m.

Type: Cargo ship. MMSI: 477014600.

Date/timePositionNaut miles runAvg speedWind from/ knotsBaromVisibWave heightAir tempDewpointWater temp
2014-Jul-26 05:07N 27°24' W 115°25'6416.4
2014-Jul-26 01:15N 28°15' W 116°07'19216.0
2014-Jul-25 13:14N 31°15' W 117°24'4416.1
2014-Jul-25 10:30N 31°57' W 117°42'2216.1
2014-Jul-25 09:08N 32°18' W 117°50'915.9
2014-Jul-25 08:33N 32°26' W 117°54'1616.0
2014-Jul-25 07:33N 32°41' W 118°00'1616.3
2014-Jul-25 06:33N 32°57' W 118°03'1413.6
2014-Jul-25 05:33N 33°11' W 118°05'1212.0
2014-Jul-25 04:33N 33°22' W 118°08'1212.0
2014-Jul-25 03:33N 33°34' W 118°13'1010.3
2014-Jul-25 02:33N 33°44' W 118°16'1 0.5
2014-Jul-25 01:33N 33°44' W 118°15'0 0.0
2014-Jul-25 00:33N 33°44' W 118°15'0 0.0
2014-Jul-24 23:33N 33°44' W 118°15'0 0.0
2014-Jul-24 22:33N 33°44' W 118°15'0 0.0
2014-Jul-24 21:33N 33°44' W 118°15'0 0.0
2014-Jul-24 20:33N 33°44' W 118°15'0 0.0
2014-Jul-24 19:33N 33°44' W 118°15'0 0.0
2014-Jul-24 18:30N 33°44' W 118°15'0 0.0
2014-Jul-24 17:33N 33°44' W 118°15'0 0.0
2014-Jul-24 16:31N 33°44' W 118°15'0 0.0
2014-Jul-24 15:29N 33°44' W 118°15'0 0.0
2014-Jul-24 14:20N 33°44' W 118°15'0 0.0
2014-Jul-24 13:32N 33°44' W 118°15'0 0.1
2014-Jul-24 12:33N 33°44' W 118°15'5 5.0
2014-Jul-24 11:33N 33°39' W 118°14'6 5.8
2014-Jul-24 10:33N 33°36' W 118°20'9 9.0
2014-Jul-24 09:33N 33°40' W 118°30'10 9.8
2014-Jul-24 08:33N 33°45' W 118°40'1010.0
2014-Jul-24 07:33N 33°50' W 118°50'1110.6
2014-Jul-24 06:33N 33°55' W 119°01'1312.7
2014-Jul-24 05:33N 34°02' W 119°14'1313.0
2014-Jul-24 04:33N 34°06' W 119°29'1312.6
2014-Jul-24 03:33N 34°09' W 119°44'1212.5
2014-Jul-24 02:33N 34°12' W 119°59'1312.5
2014-Jul-24 01:33N 34°15' W 120°13'7612.7
2014-Jul-23 19:33N 34°59' W 121°29'1913.2
2014-Jul-23 18:08N 35°15' W 121°42'1013.4
2014-Jul-23 17:23N 35°23' W 121°49'2613.6
2014-Jul-23 15:28N 35°45' W 122°07'1213.2
2014-Jul-23 14:33N 35°54' W 122°16'1413.5
2014-Jul-23 13:33N 36°06' W 122°24'1413.6
2014-Jul-23 12:33N 36°18' W 122°31'1313.2
2014-Jul-23 11:33N 36°30' W 122°38'1313.2
2014-Jul-23 10:33N 36°42' W 122°45'1313.3
2014-Jul-23 09:33N 36°55' W 122°52'1313.5
2014-Jul-23 08:33N 37°06' W 122°60'1413.7
2014-Jul-23 07:33N 37°19' W 123°06'1313.4
2014-Jul-23 06:33N 37°33' W 123°06'1514.6
2014-Jul-23 05:33N 37°41' W 122°51'1414.0
2014-Jul-23 04:33N 37°47' W 122°35'1211.7
2014-Jul-23 03:33N 37°49' W 122°20'1 0.7
2014-Jul-23 02:32N 37°49' W 122°19'0 0.0
2014-Jul-23 01:32N 37°49' W 122°19'0 0.0
2014-Jul-23 00:32N 37°49' W 122°19'0 0.0
2014-Jul-22 23:32N 37°49' W 122°19'0 0.0
2014-Jul-22 22:32N 37°49' W 122°19'0 0.0
2014-Jul-22 21:33N 37°49' W 122°19'0 0.0
2014-Jul-22 20:33N 37°49' W 122°19'0 0.0
2014-Jul-22 19:33N 37°49' W 122°19'0 0.0
2014-Jul-22 18:33N 37°49' W 122°19'0 0.0
2014-Jul-22 17:33N 37°49' W 122°19'0 0.0
2014-Jul-22 16:33N 37°49' W 122°19'0 0.0
2014-Jul-22 15:33N 37°49' W 122°19'0 0.0
2014-Jul-22 14:33N 37°49' W 122°19'0 0.0
2014-Jul-22 13:33N 37°49' W 122°19'0 0.0
2014-Jul-22 12:33N 37°49' W 122°19'0 0.0
2014-Jul-22 11:33N 37°49' W 122°19'0 0.0
2014-Jul-22 10:33N 37°49' W 122°19'0 0.0
2014-Jul-22 09:33N 37°49' W 122°19'0 0.0
2014-Jul-22 08:33N 37°49' W 122°19'0 0.0
2014-Jul-22 07:33N 37°49' W 122°19'0 0.0
2014-Jul-22 06:33N 37°49' W 122°19'0 0.0
2014-Jul-22 05:33N 37°49' W 122°19'0 0.3
2014-Jul-22 04:34N 37°49' W 122°20'9 8.8
2014-Jul-22 03:33N 37°48' W 122°31'1111.4
2014-Jul-22 02:33N 37°45' W 122°45'6 6.4
2014-Jul-22 01:33N 37°48' W 122°51'1010.3
2014-Jul-22 00:33N 37°54' W 123°03'10 9.9
2014-Jul-21 23:33N 37°60' W 123°13'1010.2
2014-Jul-21 22:33N 38°07' W 123°22'1010.1
2014-Jul-21 21:33N 38°10' W 123°34'1110.6
2014-Jul-21 20:33N 38°13' W 123°47'313.0
2014-Jul-21 20:18N 38°14' W 123°51'1013.3
2014-Jul-21 19:33N 38°17' W 124°03'1313.2
2014-Jul-21 18:33N 38°29' W 124°11'4013.4
2014-Jul-21 15:33N 39°04' W 124°36'1313.3
2014-Jul-21 14:33N 39°15' W 124°44'39413.5
2014-Jul-20 09:19N 45°49' W 124°19'1013.5
2014-Jul-20 08:33N 45°59' W 124°16'1313.2
2014-Jul-20 07:33N 46°12' W 124°12'1414.0
2014-Jul-20 06:33N 46°12' W 123°51'1312.9
2014-Jul-20 05:33N 46°15' W 123°33'1110.5
2014-Jul-20 04:33N 46°09' W 123°22'1312.7
2014-Jul-20 03:33N 46°09' W 123°03'1111.0
2014-Jul-20 02:33N 46°01' W 122°52'1211.6
2014-Jul-20 01:33N 45°50' W 122°47'1111.6
2014-Jul-20 00:33N 45°39' W 122°45'1 0.2
2014-Jul-19 21:11N 45°38' W 122°45'0 0.0
2014-Jul-19 20:29N 45°38' W 122°45'0 0.0
2014-Jul-19 19:26N 45°38' W 122°45'0 0.0
2014-Jul-19 18:32N 45°38' W 122°45'0 0.0
2014-Jul-19 17:29N 45°38' W 122°45'0 0.0
2014-Jul-19 16:05N 45°38' W 122°45'0 0.0
2014-Jul-19 15:23N 45°38' W 122°45'0 0.0
2014-Jul-19 14:23N 45°38' W 122°45'0 0.0
2014-Jul-19 13:32N 45°38' W 122°45'1 1.3
2014-Jul-19 12:33N 45°39' W 122°46'1212.2
2014-Jul-19 11:33N 45°52' W 122°47'1312.6
2014-Jul-19 10:33N 46°04' W 122°53'1212.5
2014-Jul-19 09:34N 46°11' W 123°07'1212.1
2014-Jul-19 08:34N 46°10' W 123°25'1010.4
2014-Jul-19 07:33N 46°16' W 123°38'1111.1
2014-Jul-19 06:33N 46°12' W 123°52'1111.1
2014-Jul-19 05:33N 46°14' W 124°08'10 9.7
2014-Jul-19 04:33N 46°19' W 124°20'1211.5
2014-Jul-19 03:32N 46°28' W 124°29'1414.2
2014-Jul-19 02:34N 46°40' W 124°40'1414.4
2014-Jul-19 01:33N 46°52' W 124°51'1414.3
2014-Jul-19 00:34N 47°05' W 125°02'1413.7
2014-Jul-18 23:33N 47°16' W 125°12'4113.2
2014-Jul-18 20:29N 47°57' W 125°16'1413.8
2014-Jul-18 19:29N 48°11' W 125°17'1213.0
2014-Jul-18 18:33N 48°22' W 125°11'1313.0
2014-Jul-18 17:33N 48°31' W 124°56'1616.1
2014-Jul-18 16:33N 48°28' W 124°32'1615.7
2014-Jul-18 15:33N 48°21' W 124°11'1615.7
2014-Jul-18 14:33N 48°17' W 123°48'1413.8
2014-Jul-18 13:33N 48°19' W 123°27'1212.1
2014-Jul-18 12:34N 48°25' W 123°12'1818.5
2014-Jul-18 11:33N 48°44' W 123°10'1313.1
2014-Jul-18 10:34N 48°57' W 123°14'1111.3
2014-Jul-18 09:33N 49°08' W 123°14'1111.4
2014-Jul-18 08:33N 49°10' W 122°57'2 1.9
2014-Jul-18 07:32N 49°11' W 122°55'0 0.0
2014-Jul-18 06:32N 49°11' W 122°55'0 0.0
2014-Jul-18 05:32N 49°11' W 122°55'0 0.0
2014-Jul-18 04:32N 49°11' W 122°55'0 0.0
2014-Jul-18 03:32N 49°11' W 122°55'0 0.0
2014-Jul-18 02:32N 49°11' W 122°55'0 0.0
2014-Jul-18 01:32N 49°11' W 122°55'0 0.0
2014-Jul-18 00:29N 49°11' W 122°55'0 0.0
2014-Jul-17 23:29N 49°11' W 122°55'0 0.0
2014-Jul-17 22:32N 49°11' W 122°55'0 0.0
2014-Jul-17 21:32N 49°11' W 122°55'0 0.0
2014-Jul-17 20:29N 49°11' W 122°55'0 0.0
2014-Jul-17 19:29N 49°11' W 122°55'0 0.0
2014-Jul-17 18:32N 49°11' W 122°55'0 0.0
2014-Jul-17 17:26N 49°11' W 122°55'0 0.0
2014-Jul-17 16:29N 49°11' W 122°55'0 0.0
2014-Jul-17 15:32N 49°11' W 122°55'0 0.0
2014-Jul-17 14:32N 49°11' W 122°55'1 0.7
2014-Jul-17 13:34N 49°11' W 122°55'8 7.6
2014-Jul-17 12:34N 49°07' W 123°06'1110.6
2014-Jul-17 11:34N 49°03' W 123°21'1313.2
2014-Jul-17 10:33N 48°54' W 123°05'1313.3
2014-Jul-17 09:33N 48°42' W 123°13'1717.0
2014-Jul-17 08:33N 48°25' W 123°10'1312.6
2014-Jul-17 07:33N 48°17' W 123°25'9 9.2
2014-Jul-17 06:33N 48°10' W 123°17'1919.4
2014-Jul-17 05:33N 48°11' W 122°48'1919.5
2014-Jul-17 04:33N 47°56' W 122°30'1919.0
2014-Jul-17 03:33N 47°37' W 122°27'1615.6
2014-Jul-17 02:33N 47°22' W 122°23'6 6.3
2014-Jul-17 01:33N 47°15' W 122°23'0 0.0
2014-Jul-16 19:20N 47°15' W 122°23'0 0.0
2014-Jul-16 18:32N 47°15' W 122°23'1 0.1
2014-Jul-16 12:25N 47°16' W 122°23'4 4.5
2014-Jul-16 11:33N 47°18' W 122°27'1615.5
2014-Jul-16 10:34N 47°34' W 122°27'1919.4
2014-Jul-16 09:33N 47°53' W 122°29'1717.1
2014-Jul-16 08:33N 48°08' W 122°42'1817.6
2014-Jul-16 07:33N 48°12' W 123°08'1312.9
2014-Jul-16 06:33N 48°11' W 123°27'10 9.6
2014-Jul-16 05:34N 48°14' W 123°41'  

Dump ship's entire track history